Marianna, FL

7:11 PM CST on February 10, 2016 (GMT -0600)
Marianna Municipal | | Change Station
CLOSE
Current Station
Airport
Location: Marianna,
Elevation: 112 ft
Nearby Weather Stations
Active Advisory: Freeze Warning

Elev 112 ft 30.84 °N, 85.18 °W | Updated 18 minutes ago

Clear
Clear
38 °F
Feels Like 34 °F
N
5
Wind Variable Wind from SSW

Today
High -- | Low -- °F
--% Chance of Precip.
Yesterday
High -- | Low -- °F
Precip. -- in
Pressure 30.23 in
Visibility 10.0 miles
Clouds Clear
Windchill 34 °F
Dew Point 23 °F
Humidity 55%
Rainfall 0.00 in
Snow Depth Not available.
6:26 AM 5:24 PM
Waxing Crescent, 8% visible
METAR KMAI 110053Z AUTO 20004KT 10SM CLR 03/M05 A3023 RMK AO1 SLP237 T00331050
Pressure 30.23 in
Visibility 10.0 miles
Clouds Clear
Windchill 34 °F
Dew Point 23 °F
Humidity 55%
Rainfall 0.00 in
Snow Depth Not available.
6:26 AM 5:24 PM
Waxing Crescent, 8% visible
METAR KMAI 110053Z AUTO 20004KT 10SM CLR 03/M05 A3023 RMK AO1 SLP237 T00331050

10-Day Weather Forecast

Almanac

Astronomy

Feb. 10, 2016 Rise Set
Actual Time
Civil Twilight
Nautical Twilight
Astronomical Twilight
Moon
Length of Visible Light
Length of Day
Tomorrow will be .
, % of the Moon is Illuminated

Today's Extremes

State Highs State Lows

Community

WunderPhotos

Upload Photos

1,891,961 photos uploaded!

WunderBlog® & News

Nearby

Air Quality

  Air Quality AQ Index Pollutant
Not available.

Snow Depth

Station Depth Elevation

Earthquake Activity

City Distance Mag. Time & Date
Minimum magnitude displayed is 2.5.

Coastal Water Temperatures

Place Temperature

Stations

Nearby Weather Stations

Station Location Temp. Windchill Dew Point Humidity Wind Precip. Elev Updated Type
                   

Watches & Warnings

Freeze Warning
Issued: 1:32 PM CST Feb. 10, 2016 – National Weather Service

... Freeze warning in effect from midnight EST /11 PM CST/ tonight
to 9 am EST /8 am CST/ Thursday...

The National Weather Service in Tallahassee has issued a freeze
warning... which is in effect from midnight EST /11 PM CST/
tonight to 9 am EST /8 am CST/ Thursday. The freeze watch is no
longer in effect.

* Min temperatures... 26 to 32 degrees.

Precautionary/preparedness actions...

A freeze warning means sub-freezing temperatures are imminent or
highly likely. These conditions will kill crops and other
sensitive vegetation.